WXM80 ListenWXM80 Stop

You find our weather info also at:

UK Metoffice

WeatherCloud

Weather Underground

Northeastern Weather Network

AWEKAS

Citizen Weather Observer Program (CWOP)

HAMweather, WeatherForYou, PWS Weather


Weather Underground History page Text

Daily Summary for September 17, 2017 Units:  English    Metric   Both
« Previous Day
Next Day »
Daily Weekly Monthly Yearly Custom
  High: Low: Average:
Temperature: 80.2 °F 65.1 °F 70.3 °F
Dew Point: 71.8 °F 63.3 °F 67.1 °F
Humidity: 98 % 73 % 90 %
Wind Speed: 5.1 mph 0.0 mph 0.5 mph
Wind Gust: 9.2 mph - -
Wind:- - ESE
Pressure: 30.13 in 30.04 in -
Precipitation: 0.00 in    
Historical Graphs
 
 
Tabular Data for September 17, 2017
Time Temperature Dew Point Pressure Wind Wind Speed Wind Gust Humidity Rainfall Rate (Hourly)
00:01 66.6 °F 64.5 °F 30.09 in Calm     93 % 0.00 in
00:06 66.5 °F 64.4 °F 30.09 in Calm     93 % 0.00 in
00:12 66.5 °F 64.4 °F 30.09 in Calm     93 % 0.00 in
00:17 66.4 °F 64.3 °F 30.09 in Calm     93 % 0.00 in
00:22 66.3 °F 64.2 °F 30.09 in Calm     93 % 0.00 in
00:27 66.3 °F 64.2 °F 30.09 in Calm     93 % 0.00 in
00:32 66.2 °F 64.1 °F 30.09 in Calm     93 % 0.00 in
00:37 66.1 °F 64.0 °F 30.09 in Calm     93 % 0.00 in
00:47 66.0 °F 63.9 °F 30.09 in Calm     93 % 0.00 in
00:52 65.9 °F 63.8 °F 30.08 in Calm     93 % 0.00 in
00:57 65.9 °F 63.8 °F 30.09 in Calm     93 % 0.00 in
01:02 65.8 °F 63.7 °F 30.09 in Calm     93 % 0.00 in
01:07 65.7 °F 63.6 °F 30.08 in Calm     93 % 0.00 in
01:13 65.7 °F 63.6 °F 30.08 in Calm     93 % 0.00 in
01:18 65.6 °F 63.5 °F 30.08 in Calm     93 % 0.00 in
01:23 65.6 °F 63.8 °F 30.08 in Calm     94 % 0.00 in
01:28 65.5 °F 63.7 °F 30.08 in Calm     94 % 0.00 in
01:33 65.4 °F 63.6 °F 30.08 in Calm     94 % 0.00 in
01:38 65.4 °F 63.6 °F 30.08 in Calm     94 % 0.00 in
01:43 65.3 °F 63.5 °F 30.08 in Calm     94 % 0.00 in
01:48 65.2 °F 63.4 °F 30.08 in Calm     94 % 0.00 in
01:53 65.2 °F 63.4 °F 30.08 in Calm     94 % 0.00 in
01:58 65.1 °F 63.3 °F 30.08 in Calm     94 % 0.00 in
02:03 65.1 °F 63.3 °F 30.08 in Calm     94 % 0.00 in
02:08 65.1 °F 63.3 °F 30.08 in Calm     94 % 0.00 in
02:13 65.2 °F 63.7 °F 30.08 in Calm     95 % 0.00 in
02:19 65.3 °F 63.8 °F 30.07 in Calm     95 % 0.00 in
02:24 65.3 °F 63.8 °F 30.08 in Calm     95 % 0.00 in
02:29 65.3 °F 63.8 °F 30.07 in Calm     95 % 0.00 in
02:34 65.3 °F 63.8 °F 30.07 in Calm     95 % 0.00 in
02:39 65.3 °F 63.8 °F 30.08 in Calm     95 % 0.00 in
02:44 65.2 °F 63.7 °F 30.08 in Calm     95 % 0.00 in
02:49 65.2 °F 64.0 °F 30.08 in Calm     96 % 0.00 in
02:54 65.2 °F 64.0 °F 30.07 in Calm     96 % 0.00 in
02:59 65.3 °F 64.1 °F 30.07 in Calm     96 % 0.00 in
03:04 65.3 °F 64.1 °F 30.07 in Calm     96 % 0.00 in
03:09 65.4 °F 64.2 °F 30.07 in Calm     96 % 0.00 in
03:14 65.6 °F 64.4 °F 30.08 in Calm     96 % 0.00 in
03:20 65.7 °F 64.5 °F 30.08 in Calm     96 % 0.00 in
03:25 65.7 °F 64.5 °F 30.08 in Calm     96 % 0.00 in
03:30 65.8 °F 64.9 °F 30.08 in Calm     97 % 0.00 in
03:35 66.0 °F 65.1 °F 30.08 in Calm     97 % 0.00 in
03:40 66.1 °F 65.2 °F 30.08 in Calm     97 % 0.00 in
03:45 66.1 °F 65.2 °F 30.08 in Calm     97 % 0.00 in
03:50 66.3 °F 65.4 °F 30.07 in Calm     97 % 0.00 in
03:52 66.3 °F 65.4 °F 30.08 in Calm     97 % 0.00 in
03:57 66.4 °F 65.5 °F 30.08 in Calm     97 % 0.00 in
04:02 66.4 °F 65.5 °F 30.08 in Calm     97 % 0.00 in
04:07 66.5 °F 65.6 °F 30.08 in Calm     97 % 0.00 in
04:12 66.5 °F 65.6 °F 30.08 in Calm     97 % 0.00 in
04:17 66.7 °F 65.8 °F 30.08 in Calm     97 % 0.00 in
04:22 66.7 °F 65.8 °F 30.08 in SSW 0.2 mph   97 % 0.00 in
04:27 66.7 °F 65.8 °F 30.08 in Calm     97 % 0.00 in
04:33 66.7 °F 65.8 °F 30.08 in Calm     97 % 0.00 in
04:38 66.7 °F 65.8 °F 30.08 in Calm     97 % 0.00 in
04:43 66.7 °F 65.8 °F 30.08 in Calm     97 % 0.00 in
04:48 66.7 °F 65.8 °F 30.08 in Calm     97 % 0.00 in
04:58 66.7 °F 65.8 °F 30.08 in Calm     97 % 0.00 in
05:03 66.7 °F 65.8 °F 30.08 in Calm     97 % 0.00 in
05:08 66.7 °F 65.8 °F 30.08 in Calm     97 % 0.00 in
05:13 66.7 °F 65.8 °F 30.08 in Calm     97 % 0.00 in
05:23 66.7 °F 65.8 °F 30.09 in Calm     97 % 0.00 in
05:28 66.7 °F 65.8 °F 30.09 in Calm     97 % 0.00 in
05:33 66.7 °F 65.8 °F 30.09 in Calm     97 % 0.00 in
05:38 66.7 °F 65.8 °F 30.09 in Calm     97 % 0.00 in
05:43 66.7 °F 65.8 °F 30.09 in Calm     97 % 0.00 in
05:48 66.7 °F 65.8 °F 30.10 in Calm     97 % 0.00 in
05:53 66.8 °F 65.9 °F 30.10 in Calm     97 % 0.00 in
05:58 66.8 °F 65.9 °F 30.10 in Calm     97 % 0.00 in
06:04 66.8 °F 65.9 °F 30.09 in Calm     97 % 0.00 in
06:09 66.9 °F 66.0 °F 30.10 in Calm     97 % 0.00 in
06:14 66.9 °F 66.0 °F 30.10 in Calm     97 % 0.00 in
06:19 66.9 °F 66.0 °F 30.09 in Calm     97 % 0.00 in
06:24 66.9 °F 66.0 °F 30.10 in Calm     97 % 0.00 in
06:29 66.9 °F 66.0 °F 30.10 in Calm     97 % 0.00 in
06:34 66.9 °F 66.0 °F 30.10 in Calm     97 % 0.00 in
06:39 66.8 °F 65.9 °F 30.10 in Calm     97 % 0.00 in
06:44 66.9 °F 66.0 °F 30.10 in Calm     97 % 0.00 in
06:49 66.9 °F 66.0 °F 30.10 in Calm     97 % 0.00 in
06:54 66.9 °F 66.0 °F 30.11 in Calm     97 % 0.00 in
06:59 66.9 °F 66.0 °F 30.11 in Calm     97 % 0.00 in
07:05 66.9 °F 66.0 °F 30.11 in Calm     97 % 0.00 in
07:10 67.0 °F 66.1 °F 30.11 in Calm     97 % 0.00 in
07:15 66.9 °F 66.0 °F 30.11 in Calm     97 % 0.00 in
07:20 67.0 °F 66.1 °F 30.11 in Calm     97 % 0.00 in
07:25 67.0 °F 66.1 °F 30.11 in Calm     97 % 0.00 in
07:30 67.0 °F 66.1 °F 30.11 in Calm     97 % 0.00 in
07:35 67.0 °F 66.1 °F 30.11 in Calm     97 % 0.00 in
07:40 67.1 °F 66.2 °F 30.12 in Calm     97 % 0.00 in
07:45 67.1 °F 66.2 °F 30.12 in Calm     97 % 0.00 in
07:50 67.2 °F 66.3 °F 30.12 in Calm     97 % 0.00 in
07:55 67.2 °F 66.3 °F 30.12 in Calm     97 % 0.00 in
08:00 67.3 °F 66.4 °F 30.12 in Calm     97 % 0.00 in
08:06 67.4 °F 66.5 °F 30.12 in Calm     97 % 0.00 in
08:11 67.5 °F 66.6 °F 30.12 in Calm     97 % 0.00 in
08:16 67.6 °F 66.7 °F 30.12 in Calm     97 % 0.00 in
08:21 67.7 °F 66.8 °F 30.13 in Calm     97 % 0.00 in
08:26 67.8 °F 66.9 °F 30.12 in Calm     97 % 0.00 in
08:30 67.9 °F 67.0 °F 30.13 in Calm     97 % 0.00 in
08:36 68.0 °F 67.1 °F 30.12 in Calm     97 % 0.00 in
08:41 68.1 °F 67.2 °F 30.13 in Calm     97 % 0.00 in
08:46 68.3 °F 67.4 °F 30.12 in Calm     97 % 0.00 in
08:51 68.4 °F 67.5 °F 30.12 in Calm     97 % 0.00 in
09:01 68.8 °F 68.2 °F 30.13 in SSW 1.1 mph 2.3 mph 98 % 0.00 in
09:06 68.9 °F 68.3 °F 30.13 in ENE 0.3 mph 3.5 mph 98 % 0.00 in
09:11 69.0 °F 68.1 °F 30.12 in North 0.1 mph 3.5 mph 97 % 0.00 in
09:16 69.1 °F 68.5 °F 30.12 in North 0.3 mph 1.2 mph 98 % 0.00 in
09:26 69.4 °F 68.8 °F 30.12 in Calm   1.2 mph 98 % 0.00 in
09:31 69.5 °F 68.6 °F 30.12 in NNE 1.9 mph 3.5 mph 97 % 0.00 in
09:36 69.5 °F 68.6 °F 30.12 in Calm   2.3 mph 97 % 0.00 in
09:41 69.5 °F 68.6 °F 30.12 in North 1.0 mph 2.3 mph 97 % 0.00 in
09:46 69.6 °F 68.7 °F 30.11 in Calm   1.2 mph 97 % 0.00 in
09:51 69.7 °F 68.8 °F 30.12 in Calm   1.2 mph 97 % 0.00 in
10:02 69.9 °F 69.0 °F 30.12 in Calm     97 % 0.00 in
10:07 69.9 °F 69.0 °F 30.12 in Calm     97 % 0.00 in
10:12 70.0 °F 69.1 °F 30.11 in Calm   1.2 mph 97 % 0.00 in
10:17 70.1 °F 69.2 °F 30.11 in Calm   1.2 mph 97 % 0.00 in
10:22 70.3 °F 69.1 °F 30.11 in North 0.1 mph 1.2 mph 96 % 0.00 in
10:27 70.4 °F 69.2 °F 30.11 in North 0.2 mph 2.3 mph 96 % 0.00 in
10:32 70.4 °F 69.2 °F 30.11 in Calm   2.3 mph 96 % 0.00 in
10:34 70.5 °F 69.3 °F 30.11 in Calm     96 % 0.00 in
10:40 70.6 °F 69.1 °F 30.10 in NNE 0.1 mph 1.2 mph 95 % 0.00 in
10:45 70.7 °F 68.9 °F 30.10 in NNE 0.3 mph 1.2 mph 94 % 0.00 in
10:50 70.9 °F 69.1 °F 30.10 in Calm   1.2 mph 94 % 0.00 in
10:55 71.1 °F 69.3 °F 30.10 in NNE 1.6 mph 2.3 mph 94 % 0.00 in
11:00 71.3 °F 69.2 °F 30.10 in NNE 0.7 mph 3.5 mph 93 % 0.00 in
11:05 71.6 °F 69.2 °F 30.09 in NNE 0.1 mph 1.2 mph 92 % 0.00 in
11:10 71.8 °F 69.0 °F 30.09 in NE 1.2 mph 3.5 mph 91 % 0.00 in
11:15 72.1 °F 69.3 °F 30.10 in NNE 1.2 mph 3.5 mph 91 % 0.00 in
11:20 72.4 °F 69.3 °F 30.09 in NNE 1.8 mph 5.0 mph 90 % 0.00 in
11:30 73.0 °F 69.6 °F 30.09 in Calm   1.2 mph 89 % 0.00 in
11:35 73.1 °F 69.3 °F 30.10 in North 0.6 mph 3.5 mph 88 % 0.00 in
11:40 73.3 °F 69.5 °F 30.10 in North 0.4 mph 2.0 mph 88 % 0.00 in
11:45 73.4 °F 69.6 °F 30.10 in NNW 0.4 mph 2.0 mph 88 % 0.00 in
11:51 73.5 °F 69.4 °F 30.10 in North 2.0 mph 4.0 mph 87 % 0.00 in
11:56 73.6 °F 69.8 °F 30.10 in North 1.0 mph 3.0 mph 88 % 0.00 in
12:01 73.7 °F 69.6 °F 30.09 in North 0.3 mph 2.3 mph 87 % 0.00 in
12:05 73.8 °F 69.3 °F 30.09 in North 1.0 mph 5.0 mph 86 % 0.00 in
12:10 73.9 °F 69.4 °F 30.10 in Calm   3.0 mph 86 % 0.00 in
12:25 74.1 °F 69.6 °F 30.10 in North 1.0 mph 5.0 mph 86 % 0.00 in
12:31 74.1 °F 69.3 °F 30.10 in North 2.0 mph 4.0 mph 85 % 0.00 in
12:35 74.2 °F 69.4 °F 30.10 in North 2.0 mph 5.0 mph 85 % 0.00 in
12:40 74.2 °F 69.4 °F 30.10 in NNW 2.0 mph 5.0 mph 85 % 0.00 in
12:46 74.2 °F 69.1 °F 30.10 in Calm   4.0 mph 84 % 0.00 in
12:51 74.2 °F 69.4 °F 30.09 in North 3.0 mph 5.0 mph 85 % 0.00 in
12:55 74.2 °F 69.7 °F 30.10 in North 0.3 mph 1.0 mph 86 % 0.00 in
13:01 74.2 °F 69.4 °F 30.10 in NNW 2.4 mph 3.5 mph 85 % 0.00 in
13:06 74.2 °F 69.4 °F 30.10 in NNW 0.9 mph 3.5 mph 85 % 0.00 in
13:11 74.2 °F 69.4 °F 30.10 in North 0.8 mph 3.5 mph 85 % 0.00 in
13:16 74.2 °F 69.7 °F 30.10 in North 2.8 mph 3.5 mph 86 % 0.00 in
13:21 74.2 °F 69.4 °F 30.09 in North 0.9 mph 3.5 mph 85 % 0.00 in
13:26 74.1 °F 69.3 °F 30.09 in NNE 0.9 mph 3.5 mph 85 % 0.00 in
13:31 74.1 °F 69.3 °F 30.09 in NW 1.0 mph 3.5 mph 85 % 0.00 in
13:36 74.0 °F 69.2 °F 30.09 in North 2.5 mph 4.6 mph 85 % 0.00 in
13:41 74.1 °F 69.3 °F 30.09 in NNE 2.3 mph 5.0 mph 85 % 0.00 in
13:46 74.1 °F 69.3 °F 30.08 in NNE 1.3 mph 4.6 mph 85 % 0.00 in
13:51 74.3 °F 69.5 °F 30.08 in NE 1.1 mph 3.5 mph 85 % 0.00 in
13:56 74.5 °F 69.3 °F 30.08 in ENE 0.4 mph 3.5 mph 84 % 0.00 in
14:01 74.7 °F 69.2 °F 30.09 in North 2.5 mph 4.6 mph 83 % 0.00 in
14:07 74.8 °F 69.6 °F 30.08 in NE 1.3 mph 4.0 mph 84 % 0.00 in
14:12 75.1 °F 69.6 °F 30.08 in SE 1.4 mph 4.0 mph 83 % 0.00 in
14:17 75.5 °F 70.0 °F 30.08 in SE 0.5 mph 3.5 mph 83 % 0.00 in
14:22 76.2 °F 70.3 °F 30.08 in SE 1.5 mph 3.5 mph 82 % 0.00 in
14:27 76.7 °F 71.1 °F 30.08 in SE 0.8 mph 3.0 mph 83 % 0.00 in
14:32 77.3 °F 71.0 °F 30.08 in SE 0.1 mph 1.2 mph 81 % 0.00 in
14:37 77.9 °F 70.5 °F 30.07 in SE 0.8 mph 2.3 mph 78 % 0.00 in
14:42 78.3 °F 71.6 °F 30.08 in Calm     80 % 0.00 in
14:47 78.8 °F 71.0 °F 30.08 in ESE 0.1 mph   77 % 0.00 in
14:52 79.2 °F 71.0 °F 30.07 in East 0.2 mph 1.2 mph 76 % 0.00 in
14:57 79.5 °F 70.9 °F 30.07 in East 1.0 mph 2.3 mph 75 % 0.00 in
15:02 79.7 °F 70.7 °F 30.07 in ENE 0.9 mph 3.5 mph 74 % 0.00 in
15:07 79.8 °F 71.2 °F 30.08 in North 2.7 mph 3.5 mph 75 % 0.00 in
15:12 80.1 °F 71.8 °F 30.07 in North 2.3 mph 4.0 mph 76 % 0.00 in
15:18 80.2 °F 71.2 °F 30.07 in NE 1.9 mph 3.5 mph 74 % 0.00 in
15:23 80.2 °F 71.2 °F 30.07 in North 2.2 mph 4.0 mph 74 % 0.00 in
15:28 80.2 °F 70.8 °F 30.06 in NE 0.5 mph 3.5 mph 73 % 0.00 in
15:33 80.2 °F 71.6 °F 30.06 in North 0.4 mph 2.0 mph 75 % 0.00 in
15:38 80.2 °F 71.6 °F 30.06 in NNE 0.9 mph 3.5 mph 75 % 0.00 in
15:43 80.1 °F 71.1 °F 30.06 in NE 0.2 mph 3.5 mph 74 % 0.00 in
15:48 79.8 °F 70.8 °F 30.06 in ENE 0.6 mph 1.2 mph 74 % 0.00 in
15:58 79.4 °F 70.8 °F 30.06 in NE 0.3 mph 1.2 mph 75 % 0.00 in
16:03 79.4 °F 70.8 °F 30.06 in NE 0.5 mph 2.3 mph 75 % 0.00 in
16:08 79.3 °F 70.7 °F 30.06 in NNE 1.3 mph 3.0 mph 75 % 0.00 in
16:13 79.2 °F 71.0 °F 30.06 in NE 0.7 mph 1.2 mph 76 % 0.00 in
16:18 79.0 °F 70.4 °F 30.06 in NE 0.8 mph 2.0 mph 75 % 0.00 in
16:24 78.8 °F 70.2 °F 30.06 in NE 1.9 mph 3.5 mph 75 % 0.00 in
16:29 78.7 °F 70.1 °F 30.05 in ENE 0.9 mph 2.3 mph 75 % 0.00 in
16:34 78.5 °F 70.3 °F 30.05 in ENE 1.9 mph 4.6 mph 76 % 0.00 in
16:39 78.3 °F 70.5 °F 30.05 in ENE 0.4 mph 2.3 mph 77 % 0.00 in
16:44 78.1 °F 70.3 °F 30.05 in ENE 0.6 mph 2.0 mph 77 % 0.00 in
16:49 78.0 °F 70.2 °F 30.05 in ENE 1.2 mph 3.5 mph 77 % 0.00 in
16:54 77.7 °F 69.9 °F 30.05 in ENE 0.1 mph 1.2 mph 77 % 0.00 in
16:59 77.5 °F 70.1 °F 30.05 in ENE 0.1 mph 1.2 mph 78 % 0.00 in
17:04 77.3 °F 69.9 °F 30.05 in ENE 0.1 mph 1.2 mph 78 % 0.00 in
17:09 77.1 °F 69.7 °F 30.05 in ENE 0.6 mph 2.3 mph 78 % 0.00 in
17:14 77.0 °F 69.6 °F 30.05 in Calm     78 % 0.00 in
17:25 76.7 °F 69.7 °F 30.05 in Calm   1.0 mph 79 % 0.00 in
17:30 76.6 °F 69.6 °F 30.04 in Calm     79 % 0.00 in
17:35 76.5 °F 69.1 °F 30.05 in Calm     78 % 0.00 in
17:40 76.5 °F 69.1 °F 30.05 in Calm   1.2 mph 78 % 0.00 in
17:41 76.5 °F 69.1 °F 30.05 in Calm     78 % 0.00 in
17:46 76.4 °F 69.0 °F 30.04 in SE 1.1 mph 3.5 mph 78 % 0.00 in
17:51 76.4 °F 69.4 °F 30.05 in SE 1.3 mph 3.5 mph 79 % 0.00 in
17:56 76.4 °F 69.8 °F 30.04 in SSE 1.0 mph 2.0 mph 80 % 0.00 in
18:01 76.3 °F 70.0 °F 30.05 in SSE 0.4 mph 1.2 mph 81 % 0.00 in
18:07 76.2 °F 69.9 °F 30.05 in SE 3.6 mph 6.9 mph 81 % 0.00 in
18:12 75.9 °F 69.6 °F 30.05 in SE 1.7 mph 6.0 mph 81 % 0.00 in
18:17 75.6 °F 69.4 °F 30.05 in SE 3.5 mph 6.0 mph 81 % 0.00 in
18:27 74.9 °F 69.0 °F 30.05 in SE 1.4 mph 4.6 mph 82 % 0.00 in
18:32 74.7 °F 68.8 °F 30.05 in SE 0.6 mph 3.5 mph 82 % 0.00 in
18:43 73.9 °F 68.4 °F 30.05 in SSE 1.1 mph 4.6 mph 83 % 0.00 in
18:48 73.7 °F 68.2 °F 30.05 in Calm   1.2 mph 83 % 0.00 in
18:53 73.5 °F 68.0 °F 30.05 in SE 2.9 mph 6.9 mph 83 % 0.00 in
18:58 73.0 °F 67.9 °F 30.05 in Calm   2.3 mph 84 % 0.00 in
19:03 72.7 °F 67.6 °F 30.05 in Calm     84 % 0.00 in
19:08 72.5 °F 67.4 °F 30.04 in SE 1.5 mph 3.5 mph 84 % 0.00 in
19:13 72.2 °F 67.4 °F 30.04 in SE 1.7 mph 5.8 mph 85 % 0.00 in
19:18 71.8 °F 67.0 °F 30.04 in SE 3.2 mph 5.8 mph 85 % 0.00 in
19:23 71.3 °F 66.9 °F 30.05 in SE 1.3 mph 2.3 mph 86 % 0.00 in
19:33 70.7 °F 66.6 °F 30.05 in SE 1.3 mph 3.5 mph 87 % 0.00 in
19:38 70.4 °F 66.7 °F 30.05 in SE 1.3 mph 3.0 mph 88 % 0.00 in
19:44 70.1 °F 66.7 °F 30.05 in SE 1.0 mph 3.5 mph 89 % 0.00 in
19:49 69.8 °F 66.4 °F 30.05 in SE 1.6 mph 5.8 mph 89 % 0.00 in
19:54 69.6 °F 66.5 °F 30.05 in SE 5.1 mph 9.2 mph 90 % 0.00 in
19:59 69.4 °F 66.3 °F 30.05 in SE 0.8 mph 3.5 mph 90 % 0.00 in
20:04 69.3 °F 66.2 °F 30.06 in SE 2.5 mph 4.6 mph 90 % 0.00 in
20:09 69.1 °F 66.4 °F 30.06 in SE 2.9 mph 6.0 mph 91 % 0.00 in
20:14 69.0 °F 66.3 °F 30.06 in Calm     91 % 0.00 in
20:19 68.9 °F 66.2 °F 30.06 in SE 0.3 mph 2.3 mph 91 % 0.00 in
20:24 68.8 °F 66.1 °F 30.06 in Calm   1.2 mph 91 % 0.00 in
20:29 68.7 °F 66.0 °F 30.06 in SE 0.1 mph 2.0 mph 91 % 0.00 in
20:34 68.6 °F 65.9 °F 30.06 in Calm     91 % 0.00 in
20:44 68.4 °F 66.0 °F 30.06 in Calm     92 % 0.00 in
20:50 68.3 °F 65.6 °F 30.06 in Calm     91 % 0.00 in
20:55 68.2 °F 65.5 °F 30.07 in Calm     91 % 0.00 in
21:00 68.1 °F 65.4 °F 30.07 in Calm     91 % 0.00 in
21:05 68.0 °F 65.3 °F 30.07 in Calm     91 % 0.00 in
21:15 67.9 °F 65.5 °F 30.06 in Calm     92 % 0.00 in
21:20 67.9 °F 65.5 °F 30.07 in Calm     92 % 0.00 in
21:25 67.8 °F 65.4 °F 30.07 in Calm     92 % 0.00 in
21:30 67.7 °F 65.3 °F 30.07 in Calm     92 % 0.00 in
21:35 67.7 °F 65.6 °F 30.07 in SE 1.1 mph 1.2 mph 93 % 0.00 in
21:40 67.6 °F 65.5 °F 30.07 in SE 1.0 mph 1.2 mph 93 % 0.00 in
21:46 67.6 °F 65.5 °F 30.07 in Calm   2.3 mph 93 % 0.00 in
21:51 67.5 °F 65.4 °F 30.07 in Calm     93 % 0.00 in
21:56 67.5 °F 65.4 °F 30.07 in Calm   3.0 mph 93 % 0.00 in
22:01 67.4 °F 65.3 °F 30.08 in Calm     93 % 0.00 in
22:06 67.4 °F 65.3 °F 30.08 in Calm     93 % 0.00 in
22:11 67.4 °F 65.3 °F 30.08 in Calm     93 % 0.00 in
22:16 67.3 °F 65.2 °F 30.08 in Calm     93 % 0.00 in
22:21 67.3 °F 65.2 °F 30.08 in Calm     93 % 0.00 in
22:26 67.3 °F 65.2 °F 30.08 in Calm     93 % 0.00 in
22:31 67.3 °F 65.2 °F 30.08 in Calm     93 % 0.00 in
22:36 67.3 °F 65.2 °F 30.08 in Calm     93 % 0.00 in
22:41 67.3 °F 65.2 °F 30.08 in Calm     93 % 0.00 in
22:51 67.3 °F 65.2 °F 30.08 in Calm     93 % 0.00 in
22:56 67.3 °F 65.2 °F 30.08 in Calm     93 % 0.00 in
23:01 67.3 °F 65.2 °F 30.08 in Calm     93 % 0.00 in
23:07 67.3 °F 65.2 °F 30.08 in Calm     93 % 0.00 in
23:13 67.3 °F 65.2 °F 30.08 in Calm     93 % 0.00 in
23:18 67.3 °F 65.2 °F 30.08 in Calm     93 % 0.00 in
23:20 67.3 °F 65.2 °F 30.08 in Calm     93 % 0.00 in
23:24 67.3 °F 65.2 °F 30.08 in Calm     93 % 0.00 in
23:25 67.3 °F 65.2 °F 30.08 in Calm     93 % 0.00 in
23:30 67.3 °F 65.2 °F 30.08 in SE 0.1 mph 1.2 mph 93 % 0.00 in
23:35 67.3 °F 65.2 °F 30.08 in Calm     93 % 0.00 in
23:41 67.3 °F 65.2 °F 30.08 in SE 0.6 mph   93 % 0.00 in
23:46 67.3 °F 65.5 °F 30.08 in Calm   3.0 mph 94 % 0.00 in
23:51 67.4 °F 65.6 °F 30.08 in Calm     94 % 0.00 in
23:56 67.4 °F 65.6 °F 30.08 in Calm   1.0 mph 94 % 0.00 in
Crab Meadow Weather
Compliments of Weather Underground - 3 mb

Script developed by  Jim McMurry - jmcmurry@mwt.net Adapted for the template by  Wim van der Kuil - Leuven-Template.eu

Lightning: The average number of deaths from lightning is more than 100 a year with several more deaths from lightning related fires. Lightning injuries account for 3-5 times than those of lightning deaths.